Time,TemperatureF,DewpointF,PressureIn,WindDirection,WindDirectionDegrees,WindSpeedMPH,WindSpeedGustMPH,Humidity,HourlyPrecipIn,Conditions,Clouds,dailyrainin,SoftwareType,DateUTC
2013-01-17 00:02:00,54.8,54.0,29.80,SSW,204,1.0,2.0,97,0.00,,,0.00,weatherlink.com 1.10,2013-01-17 05:02:00,
2013-01-17 00:17:00,55.5,55.0,29.79,SSW,197,1.0,3.0,97,0.00,,,0.00,weatherlink.com 1.10,2013-01-17 05:17:00,
2013-01-17 00:32:00,56.2,56.0,29.79,SSW,205,2.0,3.0,98,0.00,,,0.00,weatherlink.com 1.10,2013-01-17 05:32:00,
2013-01-17 00:48:00,57.6,57.0,29.79,SSW,195,3.0,4.0,98,0.00,,,0.00,weatherlink.com 1.10,2013-01-17 05:48:00,
2013-01-17 01:03:00,58.2,57.0,29.79,SSW,205,3.0,4.0,97,0.00,,,0.00,weatherlink.com 1.10,2013-01-17 06:03:00,
2013-01-17 01:18:00,58.2,57.0,29.79,SSW,208,1.0,4.0,97,0.00,,,0.00,weatherlink.com 1.10,2013-01-17 06:18:00,
2013-01-17 01:33:00,58.5,58.0,29.79,SSW,212,1.0,2.0,97,0.00,,,0.00,weatherlink.com 1.10,2013-01-17 06:33:00,
2013-01-17 01:48:00,58.4,58.0,29.79,SW,219,1.0,2.0,97,0.00,,,0.00,weatherlink.com 1.10,2013-01-17 06:48:00,
2013-01-17 02:03:00,59.5,59.0,29.79,WSW,246,2.0,4.0,98,0.00,,,0.00,weatherlink.com 1.10,2013-01-17 07:03:00,
2013-01-17 02:18:00,60.7,60.0,29.79,WSW,240,2.0,7.0,98,0.00,,,0.00,weatherlink.com 1.10,2013-01-17 07:18:00,
2013-01-17 02:34:00,61.3,61.0,29.79,West,263,3.0,8.0,98,0.00,,,0.00,weatherlink.com 1.10,2013-01-17 07:34:00,
2013-01-17 02:49:00,61.6,61.0,29.79,West,274,4.0,7.0,98,0.00,,,0.00,weatherlink.com 1.10,2013-01-17 07:49:00,
2013-01-17 03:04:00,61.5,61.0,29.79,West,263,3.0,10.0,98,0.01,,,0.01,weatherlink.com 1.10,2013-01-17 08:04:00,
2013-01-17 03:19:00,61.5,61.0,29.78,WSW,239,2.0,5.0,98,0.01,,,0.01,weatherlink.com 1.10,2013-01-17 08:19:00,
2013-01-17 03:34:00,61.7,61.0,29.78,SW,233,1.0,3.0,98,0.01,,,0.01,weatherlink.com 1.10,2013-01-17 08:34:00,
2013-01-17 03:49:00,61.4,61.0,29.78,WSW,242,1.0,2.0,98,0.01,,,0.01,weatherlink.com 1.10,2013-01-17 08:49:00,
2013-01-17 04:06:00,61.6,61.0,29.77,SW,228,3.0,4.0,98,0.00,,,0.01,weatherlink.com 1.10,2013-01-17 09:06:00,
2013-01-17 04:19:00,61.3,61.0,29.77,SSW,208,2.0,2.0,98,0.00,,,0.01,weatherlink.com 1.10,2013-01-17 09:19:00,
2013-01-17 04:37:00,-999.0,-99.9,29.77,North,-999,-999.0,-999.0,-999,0.00,,,0.01,weatherlink.com 1.10,2013-01-17 09:37:00,
2013-01-17 04:50:00,-999.0,-99.9,29.77,North,-999,-999.0,-999.0,-999,0.00,,,0.01,weatherlink.com 1.10,2013-01-17 09:50:00,
2013-01-17 05:06:00,-999.0,-99.9,29.77,North,-999,-999.0,-999.0,-999,0.00,,,0.01,weatherlink.com 1.10,2013-01-17 10:06:00,
2013-01-17 05:20:00,-999.0,-99.9,29.76,North,-999,-999.0,-999.0,-999,0.00,,,0.01,weatherlink.com 1.10,2013-01-17 10:20:00,
2013-01-17 05:36:00,-999.0,-99.9,29.76,North,-999,-999.0,-999.0,-999,0.00,,,0.01,weatherlink.com 1.10,2013-01-17 10:36:00,
2013-01-17 05:51:00,-999.0,-99.9,29.76,North,-999,-999.0,-999.0,-999,0.00,,,0.01,weatherlink.com 1.10,2013-01-17 10:51:00,
2013-01-17 06:06:00,-999.0,-99.9,29.76,North,-999,-999.0,-999.0,-999,0.00,,,0.01,weatherlink.com 1.10,2013-01-17 11:06:00,
2013-01-17 06:21:00,-999.0,-99.9,29.77,North,-999,-999.0,-999.0,-999,0.00,,,0.01,weatherlink.com 1.10,2013-01-17 11:21:00,
2013-01-17 06:37:00,-999.0,-99.9,29.77,North,-999,-999.0,-999.0,-999,0.00,,,0.01,weatherlink.com 1.10,2013-01-17 11:37:00,
2013-01-17 06:53:00,-999.0,-99.9,29.77,North,-999,-999.0,-999.0,-999,0.00,,,0.01,weatherlink.com 1.10,2013-01-17 11:53:00,
2013-01-17 07:07:00,-999.0,-99.9,29.78,North,-999,-999.0,-999.0,-999,0.00,,,0.01,weatherlink.com 1.10,2013-01-17 12:07:00,
2013-01-17 07:22:00,-999.0,-99.9,29.78,North,-999,-999.0,-999.0,-999,0.00,,,0.01,weatherlink.com 1.10,2013-01-17 12:22:00,
2013-01-17 07:37:00,-999.0,-99.9,29.78,North,-999,-999.0,-999.0,-999,0.00,,,0.01,weatherlink.com 1.10,2013-01-17 12:37:00,
2013-01-17 07:52:00,61.4,61.0,29.79,West,276,2.0,4.0,98,0.00,,,0.01,weatherlink.com 1.10,2013-01-17 12:52:00,
2013-01-17 08:07:00,61.7,61.0,29.79,WSW,252,1.0,4.0,98,0.00,,,0.01,weatherlink.com 1.10,2013-01-17 13:07:00,
2013-01-17 08:22:00,61.7,61.0,29.79,SW,236,2.0,3.0,98,0.00,,,0.01,weatherlink.com 1.10,2013-01-17 13:22:00,
2013-01-17 08:37:00,61.9,61.0,29.80,NW,318,0.0,2.0,98,0.00,,,0.01,weatherlink.com 1.10,2013-01-17 13:37:00,
2013-01-17 08:53:00,62.3,62.0,29.80,NW,313,1.0,3.0,98,0.00,,,0.01,weatherlink.com 1.10,2013-01-17 13:53:00,
2013-01-17 09:08:00,62.6,62.0,29.81,NW,314,2.0,3.0,98,0.00,,,0.01,weatherlink.com 1.10,2013-01-17 14:08:00,
2013-01-17 09:23:00,63.1,63.0,29.81,WNW,303,3.0,5.0,98,0.00,,,0.01,weatherlink.com 1.10,2013-01-17 14:23:00,
2013-01-17 09:38:00,63.8,63.0,29.80,NW,320,0.0,6.0,98,0.00,,,0.01,weatherlink.com 1.10,2013-01-17 14:38:00,
2013-01-17 09:53:00,64.5,64.0,29.80,NW,312,3.0,6.0,97,0.00,,,0.01,weatherlink.com 1.10,2013-01-17 14:53:00,
2013-01-17 10:08:00,65.7,64.0,29.79,NW,321,0.0,4.0,95,0.00,,,0.01,weatherlink.com 1.10,2013-01-17 15:08:00,
2013-01-17 10:23:00,66.9,64.0,29.79,NNW,330,2.0,5.0,91,0.00,,,0.01,weatherlink.com 1.10,2013-01-17 15:23:00,
2013-01-17 10:39:00,67.3,63.0,29.78,WNW,297,5.0,9.0,87,0.00,,,0.01,weatherlink.com 1.10,2013-01-17 15:39:00,
2013-01-17 10:54:00,68.0,63.0,29.77,NNW,338,6.0,11.0,84,0.00,,,0.01,weatherlink.com 1.10,2013-01-17 15:54:00,
2013-01-17 11:09:00,67.6,63.0,29.77,NNE,29,5.0,9.0,86,0.00,,,0.01,weatherlink.com 1.10,2013-01-17 16:09:00,
2013-01-17 11:24:00,65.8,62.0,29.77,ENE,65,8.0,9.0,87,0.00,,,0.01,weatherlink.com 1.10,2013-01-17 16:24:00,
2013-01-17 11:39:00,63.6,61.0,29.77,ENE,62,6.0,9.0,91,0.00,,,0.01,weatherlink.com 1.10,2013-01-17 16:39:00,
2013-01-17 11:54:00,62.9,61.0,29.76,NE,51,5.0,9.0,92,0.00,,,0.01,weatherlink.com 1.10,2013-01-17 16:54:00,
2013-01-17 12:09:00,61.7,59.0,29.76,ENE,64,7.0,9.0,92,0.00,,,0.01,weatherlink.com 1.10,2013-01-17 17:09:00,
2013-01-17 12:26:00,59.1,57.0,29.75,East,81,10.0,10.0,93,0.00,,,0.01,weatherlink.com 1.10,2013-01-17 17:26:00,
2013-01-17 12:40:00,58.1,56.0,29.75,East,84,9.0,11.0,94,0.00,,,0.01,weatherlink.com 1.10,2013-01-17 17:40:00,
2013-01-17 12:56:00,57.3,56.0,29.74,ESE,111,8.0,12.0,95,0.00,,,0.01,weatherlink.com 1.10,2013-01-17 17:56:00,
2013-01-17 13:10:00,57.0,56.0,29.73,ENE,63,5.0,13.0,95,0.00,,,0.01,weatherlink.com 1.10,2013-01-17 18:10:00,
2013-01-17 13:26:00,56.5,55.0,29.73,ESE,115,5.0,12.0,95,0.00,,,0.01,weatherlink.com 1.10,2013-01-17 18:26:00,
2013-01-17 13:40:00,55.6,54.0,29.73,East,90,13.0,15.0,95,0.00,,,0.01,weatherlink.com 1.10,2013-01-17 18:40:00,
2013-01-17 13:56:00,54.9,54.0,29.72,ENE,75,8.0,15.0,96,0.00,,,0.01,weatherlink.com 1.10,2013-01-17 18:56:00,
2013-01-17 14:11:00,54.3,53.0,29.71,ENE,63,11.0,18.0,95,0.00,,,0.01,weatherlink.com 1.10,2013-01-17 19:11:00,
2013-01-17 14:26:00,53.9,53.0,29.72,SE,124,7.0,22.0,95,0.00,,,0.01,weatherlink.com 1.10,2013-01-17 19:26:00,
2013-01-17 14:41:00,53.5,52.0,29.73,ENE,77,10.0,17.0,96,0.00,,,0.01,weatherlink.com 1.10,2013-01-17 19:41:00,
2013-01-17 14:58:00,53.2,52.0,29.73,ESE,110,9.0,23.0,96,0.00,,,0.01,weatherlink.com 1.10,2013-01-17 19:58:00,
2013-01-17 15:11:00,53.2,52.0,29.72,East,88,7.0,15.0,96,0.00,,,0.01,weatherlink.com 1.10,2013-01-17 20:11:00,
2013-01-17 15:26:00,53.2,52.0,29.71,East,88,6.0,13.0,96,0.00,,,0.01,weatherlink.com 1.10,2013-01-17 20:26:00,
2013-01-17 15:41:00,52.6,52.0,29.71,East,98,12.0,22.0,96,0.00,,,0.01,weatherlink.com 1.10,2013-01-17 20:41:00,
2013-01-17 15:57:00,52.0,51.0,29.72,East,98,16.0,22.0,95,0.00,,,0.01,weatherlink.com 1.10,2013-01-17 20:57:00,
2013-01-17 16:42:00,50.3,49.0,29.72,ESE,107,9.0,18.0,95,0.00,,,0.01,weatherlink.com 1.10,2013-01-17 21:42:00,
2013-01-17 16:57:00,49.5,48.0,29.70,ENE,72,17.0,23.0,95,0.00,,,0.01,weatherlink.com 1.10,2013-01-17 21:57:00,
2013-01-17 17:12:00,49.0,48.0,29.70,East,89,13.0,20.0,96,0.00,,,0.01,weatherlink.com 1.10,2013-01-17 22:12:00,
2013-01-17 17:28:00,48.3,47.0,29.69,East,94,12.0,26.0,96,0.00,,,0.01,weatherlink.com 1.10,2013-01-17 22:28:00,
2013-01-17 17:43:00,48.2,47.0,29.70,ENE,60,8.0,25.0,96,0.00,,,0.01,weatherlink.com 1.10,2013-01-17 22:43:00,
2013-01-17 17:58:00,47.9,47.0,29.70,East,79,15.0,24.0,96,0.00,,,0.01,weatherlink.com 1.10,2013-01-17 22:58:00,
2013-01-17 18:13:00,47.7,47.0,29.68,ESE,109,11.0,26.0,96,0.00,,,0.01,weatherlink.com 1.10,2013-01-17 23:13:00,
2013-01-17 18:28:00,47.7,47.0,29.69,ENE,71,11.0,20.0,96,0.00,,,0.01,weatherlink.com 1.10,2013-01-17 23:28:00,
2013-01-17 18:43:00,46.8,46.0,29.69,ENE,78,17.0,24.0,96,0.00,,,0.01,weatherlink.com 1.10,2013-01-17 23:43:00,
2013-01-17 18:59:00,46.5,46.0,29.67,SE,135,8.0,27.0,96,0.00,,,0.01,weatherlink.com 1.10,2013-01-17 23:59:00,
2013-01-17 19:14:00,46.5,46.0,29.67,NNE,28,6.0,21.0,96,0.00,,,0.01,weatherlink.com 1.10,2013-01-18 00:14:00,
2013-01-17 19:29:00,46.4,45.0,29.67,NE,50,5.0,25.0,96,0.00,,,0.01,weatherlink.com 1.10,2013-01-18 00:29:00,
2013-01-17 19:44:00,46.3,45.0,29.66,ENE,76,19.0,30.0,96,0.00,,,0.01,weatherlink.com 1.10,2013-01-18 00:44:00,
2013-01-17 19:59:00,46.4,45.0,29.67,NE,56,12.0,16.0,96,0.00,,,0.01,weatherlink.com 1.10,2013-01-18 00:59:00,
2013-01-17 20:14:00,46.5,46.0,29.65,East,95,8.0,17.0,96,0.00,,,0.01,weatherlink.com 1.10,2013-01-18 01:14:00,
2013-01-17 20:30:00,46.6,45.0,29.64,NE,46,7.0,21.0,95,0.00,,,0.01,weatherlink.com 1.10,2013-01-18 01:30:00,
2013-01-17 20:46:00,46.4,45.0,29.64,ENE,62,15.0,23.0,95,0.00,,,0.01,weatherlink.com 1.10,2013-01-18 01:46:00,
2013-01-17 21:01:00,46.3,45.0,29.63,ENE,75,12.0,22.0,95,0.00,,,0.01,weatherlink.com 1.10,2013-01-18 02:01:00,
2013-01-17 21:16:00,45.9,45.0,29.64,ENE,73,18.0,27.0,95,0.00,,,0.01,weatherlink.com 1.10,2013-01-18 02:16:00,
2013-01-17 21:30:00,45.7,44.0,29.65,ENE,60,16.0,17.0,95,0.01,,,0.02,weatherlink.com 1.10,2013-01-18 02:30:00,
2013-01-17 21:46:00,45.4,44.0,29.71,NW,323,5.0,18.0,96,0.04,,,0.05,weatherlink.com 1.10,2013-01-18 02:46:00,
2013-01-17 22:01:00,44.9,44.0,29.70,East,80,13.0,17.0,95,0.08,,,0.09,weatherlink.com 1.10,2013-01-18 03:01:00,
2013-01-17 22:16:00,44.7,44.0,29.70,NNE,32,7.0,17.0,96,0.13,,,0.14,weatherlink.com 1.10,2013-01-18 03:16:00,
2013-01-17 22:31:00,44.0,43.0,29.70,NE,54,15.0,22.0,95,0.16,,,0.19,weatherlink.com 1.10,2013-01-18 03:31:00,
2013-01-17 22:46:00,43.0,42.0,29.72,NNE,29,23.0,23.0,95,0.16,,,0.22,weatherlink.com 1.10,2013-01-18 03:46:00,
2013-01-17 23:01:00,42.5,41.0,29.72,East,85,11.0,29.0,95,0.13,,,0.22,weatherlink.com 1.10,2013-01-18 04:01:00,
2013-01-17 23:16:00,41.9,41.0,29.75,ENE,68,19.0,22.0,95,0.07,,,0.22,weatherlink.com 1.10,2013-01-18 04:16:00,
2013-01-17 23:31:00,42.1,40.0,29.73,NE,43,21.0,30.0,93,0.03,,,0.22,weatherlink.com 1.10,2013-01-18 04:31:00,
2013-01-17 23:46:00,42.1,40.0,29.73,NNE,20,13.0,28.0,93,0.00,,,0.22,weatherlink.com 1.10,2013-01-18 04:46:00,